Archival Weather

Snohomish County (Paine Fld)

Everett, Washington (KPAE)

Report from: Friday, November 10, 2023 6:53 AM PST
Current time: Monday, June 17, 2024 1:10 AM PDT

Current weather – Weather history – Daily summaries
Weather forecast

Temperature7.8°C (46.0°F)
Wind chill6.6°C (43.8°F)
Dew point5.6°C (42.1°F)
Winds 4 kts (2.1 m/s, 4.6 mph) South (180°)
Visibility10 mi. (16.1 km)
Clouds Ceiling: Overcast 700 ft. (213 m)
Altimeter30.11 in.Hg (1020 mB)
Relative humidity86 %
Density altitude-958 ft. (-292 m)
Sea-level pressure102.0 kPa (1020 mB, 30.12 in.Hg)
Remarks Automated weather observing station with precipitation discriminator
Pressure rising more slowly
Flight conditions Instrument Meteorological Conditions
Raw dataKPAE 101453Z 18004KT 10SM OVC007 08/06 A3011 RMK AO2 SLP199 T00780056 51008
An error has occurred. This application may no longer respond until reloaded. Reload 🗙